5Y2 weather

Houghton Lake State Airport
Houghton Lake Heights, Michigan, United States

Public forecast

Using degrees Fahrenheit for public forecast. Weather courtesy of forecast.io.

METAR (pilot weather report)

Closest report is Roscommon County - Blodgett Memorial Airport, 5.5 nm (10.2 km) ENE. Retrieved 2019/06/16 21:53 UTC (8 minutes ago):

KHTL 162153Z AUTO 07006KT 10SM BKN070 OVC090 16/08 A2994 RMK AO2 RAB23E50 SLP143 P0000 T01610083

TAF (pilot weather forecast)

Closest forecast is Cherry Capital Airport, 41.9 nm (77.6 km) NW. Retrieved 2019/06/16 18:39 UTC (3 hours ago):

TAF KTVC 161735Z 1618/1718 03006KT P6SM -SHRA SCT050 BKN090 FM161900 03006KT P6SM BKN100 FM170000 VRB04KT P6SM SCT100 FM170800 00000KT P6SM SCT200 FM171500 VRB03KT P6SM SCT150